createdAt,value
2018-11-22T12:16:44.191Z,11.00
2018-11-22T12:19:47.295Z,12.17
2018-11-22T12:22:51.669Z,12.20
2018-11-22T12:25:54.720Z,11.63
2018-11-22T12:28:57.885Z,12.17
2018-11-22T12:32:06.396Z,13.33
2018-11-22T12:35:13.087Z,12.27
2018-11-22T12:38:21.581Z,13.50
2018-11-22T12:41:24.651Z,14.35
2018-11-22T12:44:27.724Z,13.47
2018-11-22T12:47:31.527Z,12.13
2018-11-22T12:50:34.565Z,13.27
2018-11-22T12:53:37.600Z,12.47
2018-11-22T12:56:40.740Z,13.23
2018-11-22T12:59:43.781Z,11.63
2018-11-22T13:02:46.889Z,14.10
2018-11-22T13:05:49.977Z,12.83
2018-11-22T13:08:53.016Z,13.77
2018-11-22T13:11:56.125Z,14.43
2018-11-22T13:14:59.164Z,13.00
2018-11-22T13:18:02.205Z,13.07
2018-11-22T13:21:05.630Z,13.13
2018-11-22T13:24:08.667Z,12.27
2018-11-22T13:27:11.805Z,13.00
2018-11-22T13:30:17.127Z,15.17
2018-11-22T13:33:20.221Z,14.87
2018-11-22T13:36:23.259Z,13.40
2018-11-22T13:39:26.357Z,13.10
2018-11-22T13:42:29.445Z,12.20
2018-11-22T13:45:47.660Z,13.23
2018-11-22T13:48:52.777Z,15.37
2018-11-22T13:51:55.836Z,14.60
2018-11-22T13:54:58.906Z,13.80
2018-11-22T13:58:01.985Z,14.63
2018-11-22T14:01:05.168Z,16.90
2018-11-22T14:04:09.268Z,13.33
2018-11-22T14:07:12.355Z,13.30
2018-11-22T14:10:16.957Z,13.33
2018-11-22T14:13:19.852Z,13.13
2018-11-22T14:16:22.917Z,14.30
2018-11-22T14:19:25.995Z,13.67
2018-11-22T14:22:29.028Z,13.23
2018-11-22T14:25:32.172Z,13.97
2018-11-22T14:28:35.303Z,14.97
2018-11-22T14:31:38.409Z,20.10
2018-11-22T14:34:41.563Z,18.10
2018-11-22T14:37:45.953Z,15.30
2018-11-22T14:40:49.029Z,16.17
2018-11-22T14:43:52.097Z,15.57
2018-11-22T14:46:55.217Z,14.17
2018-11-22T14:49:58.376Z,12.97
2018-11-22T14:53:07.044Z,16.53
2018-11-22T14:56:10.153Z,13.63
2018-11-22T14:59:13.416Z,12.23
2018-11-22T15:02:16.505Z,13.33
2018-11-22T15:05:19.604Z,12.30
2018-11-22T15:08:22.647Z,13.23
2018-11-22T15:11:26.219Z,14.53
2018-11-22T15:14:29.277Z,12.43
2018-11-22T15:17:32.599Z,14.47
2018-11-22T15:20:35.655Z,14.47
2018-11-22T15:23:38.791Z,12.40
2018-11-22T15:26:41.984Z,12.28
2018-11-22T15:29:45.158Z,14.97
2018-11-22T15:32:48.288Z,14.00
2018-11-22T15:35:51.469Z,12.40
2018-11-22T15:38:54.644Z,12.53
2018-11-22T15:41:57.843Z,31.60
2018-11-22T15:45:00.969Z,16.37
2018-11-22T15:48:05.373Z,15.70
2018-11-22T15:51:08.596Z,18.30
2018-11-22T15:54:11.776Z,15.30
2018-11-22T15:57:15.070Z,14.10
2018-11-22T16:00:21.178Z,15.63
2018-11-22T16:03:24.313Z,15.80
2018-11-22T16:06:27.507Z,16.10
2018-11-22T16:09:30.640Z,20.37
2018-11-22T16:12:33.861Z,17.37
2018-11-22T16:15:40.941Z,18.43
2018-11-22T16:18:44.017Z,20.57
2018-11-22T16:21:47.117Z,19.80
2018-11-22T16:24:50.298Z,17.90
2018-11-22T16:27:53.604Z,18.60
2018-11-22T16:30:56.782Z,19.67
2018-11-22T16:33:59.941Z,21.97
2018-11-22T16:37:03.085Z,20.65
2018-11-22T16:40:08.375Z,17.80
2018-11-22T16:43:11.530Z,17.37
2018-11-22T16:46:15.112Z,18.20
2018-11-22T16:49:18.220Z,18.50
2018-11-22T16:52:21.389Z,17.57
2018-11-22T16:55:25.272Z,18.30
2018-11-22T16:58:28.528Z,16.93
2018-11-22T17:01:32.726Z,16.37
2018-11-22T17:04:35.975Z,20.30
2018-11-22T17:07:39.038Z,15.07
2018-11-22T17:10:42.513Z,17.43
2018-11-22T17:13:45.577Z,17.07
2018-11-22T17:16:48.667Z,14.90
2018-11-22T17:19:51.769Z,20.57
2018-11-22T17:22:55.228Z,20.93
2018-11-22T17:25:58.472Z,16.87
2018-11-22T17:29:01.577Z,16.23
2018-11-22T17:32:04.945Z,20.37
2018-11-22T17:35:09.262Z,21.63
2018-11-22T17:38:13.133Z,15.73
2018-11-22T17:41:16.347Z,15.80
2018-11-22T17:44:20.284Z,18.23
2018-11-22T17:47:23.361Z,17.80
2018-11-22T17:50:28.213Z,22.00
2018-11-22T17:53:32.340Z,20.77
2018-11-22T17:56:35.900Z,18.00
2018-11-22T17:59:38.992Z,17.67
2018-11-22T18:02:42.272Z,21.30
2018-11-22T18:05:45.436Z,20.10
2018-11-22T18:08:48.532Z,20.70
2018-11-22T18:11:51.756Z,17.97
2018-11-22T18:14:54.936Z,31.13
2018-11-22T18:17:58.074Z,18.00
2018-11-22T18:21:01.238Z,18.57
2018-11-22T18:24:04.396Z,17.67
2018-11-22T18:27:07.460Z,18.47
2018-11-22T18:30:14.626Z,16.33
2018-11-22T18:33:17.965Z,23.73
2018-11-22T18:36:21.078Z,17.73
2018-11-22T18:39:24.216Z,15.80
2018-11-22T18:42:27.439Z,15.97
2018-11-22T18:45:31.224Z,16.57
2018-11-22T18:48:34.316Z,16.40
2018-11-22T18:51:37.395Z,18.10
2018-11-22T18:54:41.688Z,17.83
2018-11-22T18:57:45.264Z,15.27
2018-11-22T19:00:48.320Z,16.07
2018-11-22T19:03:51.597Z,17.93
2018-11-22T19:06:54.696Z,15.33
2018-11-22T19:09:57.748Z,14.73
2018-11-22T19:13:02.080Z,15.53
2018-11-22T19:16:05.237Z,18.73
2018-11-22T19:19:09.161Z,17.03
2018-11-22T19:22:12.212Z,16.23
2018-11-22T19:25:15.592Z,15.20
2018-11-22T19:28:19.366Z,18.53
2018-11-22T19:31:22.555Z,16.27
2018-11-22T19:34:25.936Z,16.40
2018-11-22T19:37:29.016Z,17.15
2018-11-22T19:40:33.724Z,13.67
2018-11-22T19:43:36.821Z,17.47
2018-11-22T19:46:39.861Z,16.77
2018-11-22T19:49:42.983Z,16.73
2018-11-22T19:52:48.901Z,16.30
2018-11-22T19:55:53.284Z,14.03
2018-11-22T19:58:56.391Z,13.87
2018-11-22T20:01:59.580Z,15.40
2018-11-22T20:05:03.869Z,15.70
2018-11-22T20:08:09.506Z,15.90
2018-11-22T20:11:12.548Z,15.70
2018-11-22T20:14:15.693Z,18.77
2018-11-22T20:17:18.882Z,20.10
2018-11-22T20:20:22.506Z,14.90
2018-11-22T20:23:25.762Z,18.07
2018-11-22T20:26:29.964Z,17.73
2018-11-22T20:29:32.147Z,14.77
2018-11-22T20:32:38.895Z,18.03
2018-11-22T20:35:38.381Z,16.10
2018-11-22T20:38:41.486Z,17.80
2018-11-22T20:41:44.549Z,24.00
2018-11-22T20:44:47.608Z,18.70
2018-11-22T20:47:52.348Z,22.90
2018-11-22T20:50:55.524Z,19.37
2018-11-22T20:53:58.586Z,16.23
2018-11-22T20:57:01.697Z,15.17
2018-11-22T21:00:07.181Z,20.23
2018-11-22T21:03:10.269Z,18.60
2018-11-22T21:06:13.377Z,17.13
2018-11-22T21:09:16.516Z,13.87
2018-11-22T21:12:19.700Z,15.43
2018-11-22T21:15:24.259Z,17.53
2018-11-22T21:18:28.508Z,17.50
2018-11-22T21:21:32.940Z,13.83
2018-11-22T21:24:36.176Z,19.57
2018-11-22T21:27:39.382Z,14.40
2018-11-22T21:30:42.666Z,16.87
2018-11-22T21:33:45.940Z,17.37
2018-11-22T21:36:49.288Z,46.70
2018-11-22T21:39:52.661Z,50.87
2018-11-22T21:42:55.937Z,71.47
2018-11-22T21:45:59.084Z,67.00
2018-11-22T21:49:03.181Z,64.20
2018-11-22T21:52:06.522Z,53.30
2018-11-22T21:55:12.102Z,49.87
2018-11-22T21:58:15.372Z,46.70
2018-11-22T22:01:18.682Z,43.23
2018-11-22T22:04:22.290Z,42.50
2018-11-22T22:07:25.752Z,41.17
2018-11-22T22:10:29.185Z,44.20
2018-11-22T22:13:32.350Z,31.93
2018-11-22T22:16:36.419Z,35.00
2018-11-22T22:19:39.133Z,31.17
2018-11-22T22:22:42.427Z,35.60
2018-11-22T22:25:45.598Z,30.00
2018-11-22T22:28:48.955Z,28.53
2018-11-22T22:31:52.093Z,29.07
2018-11-22T22:34:55.381Z,29.00
2018-11-22T22:37:58.825Z,25.20
2018-11-22T22:41:02.079Z,24.37
2018-11-22T22:44:05.380Z,25.13
2018-11-22T22:47:08.593Z,21.37
2018-11-22T22:50:14.634Z,31.70
2018-11-22T22:53:18.006Z,24.03
2018-11-22T22:56:21.383Z,21.02
2018-11-22T22:59:24.657Z,22.20
2018-11-22T23:02:27.833Z,23.57
2018-11-22T23:05:31.553Z,20.27
2018-11-22T23:08:34.766Z,22.27
2018-11-22T23:11:38.190Z,22.63
2018-11-22T23:14:41.559Z,23.23
2018-11-22T23:17:44.962Z,19.70
2018-11-22T23:20:48.588Z,20.63
2018-11-22T23:23:51.866Z,16.80
2018-11-22T23:26:55.095Z,19.67
2018-11-22T23:29:58.237Z,19.40
2018-11-22T23:33:02.720Z,19.23
2018-11-22T23:36:05.878Z,17.03
2018-11-22T23:39:10.340Z,17.60
2018-11-22T23:42:13.484Z,18.73
2018-11-22T23:45:17.872Z,17.57
2018-11-22T23:48:20.969Z,17.63
2018-11-22T23:51:24.041Z,20.70
2018-11-22T23:54:27.385Z,17.30
2018-11-22T23:57:30.490Z,19.53
